createdAt,value
2023-05-20T00:03:47.847Z,11.30
2023-05-20T00:08:51.739Z,11.40
2023-05-20T00:13:55.083Z,11.30
2023-05-20T00:18:58.830Z,11.40
2023-05-20T00:24:02.245Z,11.40
2023-05-20T00:29:05.612Z,11.30
2023-05-20T00:34:10.456Z,11.40
2023-05-20T00:39:13.839Z,11.40
2023-05-20T00:44:19.162Z,11.40
2023-05-20T00:49:24.204Z,11.40
2023-05-20T00:54:27.601Z,11.30
2023-05-20T00:59:31.370Z,11.40
2023-05-20T01:04:35.159Z,11.40
2023-05-20T01:09:38.523Z,11.40
2023-05-20T01:14:51.932Z,11.40
2023-05-20T01:19:57.036Z,11.30
2023-05-20T01:25:00.265Z,11.30
2023-05-20T01:30:03.939Z,11.30
2023-05-20T01:35:08.290Z,11.30
2023-05-20T01:40:17.064Z,11.30
2023-05-20T01:45:21.065Z,11.30
2023-05-20T01:50:24.485Z,11.30
2023-05-20T01:55:27.891Z,11.30
2023-05-20T02:00:34.519Z,11.30
2023-05-20T02:05:38.708Z,11.30
2023-05-20T02:10:42.444Z,11.20
2023-05-20T02:15:46.150Z,11.30
2023-05-20T02:20:49.483Z,11.20
2023-05-20T02:25:52.896Z,11.20
2023-05-20T02:30:56.379Z,11.10
2023-05-20T02:35:59.723Z,11.10
2023-05-20T02:41:04.930Z,11.10
2023-05-20T02:46:08.391Z,11.10
2023-05-20T02:51:11.961Z,11.10
2023-05-20T02:56:15.465Z,11.10
2023-05-20T03:01:18.994Z,11.10
2023-05-20T03:06:22.483Z,11.10
2023-05-20T03:11:26.815Z,11.10
2023-05-20T03:16:30.446Z,11.10
2023-05-20T03:21:34.821Z,11.10
2023-05-20T03:26:43.517Z,11.00
2023-05-20T03:31:47.465Z,11.00
2023-05-20T03:36:52.362Z,11.00
2023-05-20T03:41:56.004Z,11.00
2023-05-20T03:46:59.638Z,11.10
2023-05-20T03:52:04.103Z,11.10
2023-05-20T03:57:07.479Z,11.10
2023-05-20T04:02:11.600Z,11.20
2023-05-20T04:07:15.213Z,11.20
2023-05-20T04:12:19.753Z,11.20
2023-05-20T04:17:23.010Z,11.20
2023-05-20T04:22:27.231Z,11.30
2023-05-20T04:27:31.989Z,11.30
2023-05-20T04:32:35.197Z,11.40
2023-05-20T04:37:39.025Z,11.40
2023-05-20T04:42:42.501Z,11.50
2023-05-20T04:47:46.331Z,11.50
2023-05-20T04:52:49.861Z,11.60
2023-05-20T04:57:53.239Z,11.60
2023-05-20T05:02:56.874Z,11.70
2023-05-20T05:08:00.300Z,11.70
2023-05-20T05:13:04.060Z,11.80
2023-05-20T05:18:07.811Z,11.80
2023-05-20T05:23:11.128Z,11.80
2023-05-20T05:28:14.474Z,12.00
2023-05-20T05:33:18.293Z,12.00
2023-05-20T05:38:21.601Z,12.00
2023-05-20T05:43:24.764Z,12.20
2023-05-20T05:48:28.110Z,12.20
2023-05-20T05:53:31.364Z,12.30
2023-05-20T05:58:34.844Z,12.40
2023-05-20T06:03:38.323Z,12.40
2023-05-20T06:08:41.885Z,12.50
2023-05-20T06:13:45.252Z,12.60
2023-05-20T06:18:51.847Z,12.60
2023-05-20T06:23:55.233Z,12.80
2023-05-20T06:28:58.523Z,12.90
2023-05-20T06:34:01.868Z,13.00
2023-05-20T06:39:06.912Z,13.10
2023-05-20T06:44:10.469Z,13.20
2023-05-20T06:49:13.724Z,13.50
2023-05-20T06:54:16.943Z,13.60
2023-05-20T06:59:20.175Z,13.70
2023-05-20T07:04:23.624Z,13.80
2023-05-20T07:09:27.073Z,13.90
2023-05-20T07:14:30.358Z,14.20
2023-05-20T07:19:34.241Z,14.50
2023-05-20T07:24:37.714Z,14.80
2023-05-20T07:29:41.340Z,15.10
2023-05-20T07:34:44.672Z,15.30
2023-05-20T07:39:48.016Z,15.40
2023-05-20T07:44:51.315Z,15.60
2023-05-20T07:49:54.773Z,15.70
2023-05-20T07:54:58.471Z,16.10
2023-05-20T08:00:01.992Z,16.30
2023-05-20T08:05:06.188Z,16.40
2023-05-20T08:10:10.200Z,16.70
2023-05-20T08:15:13.619Z,17.10
2023-05-20T08:20:17.351Z,17.30
2023-05-20T08:25:20.748Z,17.50
2023-05-20T08:30:24.300Z,17.80
2023-05-20T08:35:27.837Z,17.90
2023-05-20T08:40:31.082Z,18.20
2023-05-20T08:45:37.511Z,18.60
2023-05-20T08:50:41.345Z,19.00
2023-05-20T08:55:49.444Z,19.10
2023-05-20T09:00:55.829Z,19.00
2023-05-20T09:06:09.167Z,19.20
2023-05-20T09:11:13.266Z,19.20
2023-05-20T09:16:16.853Z,19.20
2023-05-20T09:21:29.280Z,19.20
2023-05-20T09:26:33.290Z,19.10
2023-05-20T09:31:39.297Z,19.30
2023-05-20T09:36:45.298Z,19.30
2023-05-20T09:41:58.497Z,19.30
2023-05-20T09:47:02.922Z,19.00
2023-05-20T09:52:06.939Z,18.70
2023-05-20T09:57:10.492Z,18.50
2023-05-20T10:02:14.202Z,18.50
2023-05-20T10:07:41.176Z,19.00
2023-05-20T10:12:53.947Z,19.40
2023-05-20T10:18:25.222Z,19.70
2023-05-20T10:23:32.082Z,20.00
2023-05-20T10:28:36.922Z,20.40
2023-05-20T10:33:47.703Z,20.60
2023-05-20T10:38:56.117Z,20.30
2023-05-20T10:44:03.811Z,20.10
2023-05-20T10:49:23.336Z,20.20
2023-05-20T10:54:29.884Z,20.30
2023-05-20T10:59:33.714Z,20.20
2023-05-20T11:04:37.557Z,20.40
2023-05-20T11:09:49.859Z,20.60
2023-05-20T11:14:55.016Z,21.00
2023-05-20T11:20:01.327Z,21.10
2023-05-20T11:25:07.773Z,20.70
2023-05-20T11:30:18.875Z,20.50
2023-05-20T11:35:26.554Z,20.40
2023-05-20T11:40:38.902Z,20.40
2023-05-20T11:46:00.216Z,20.60
2023-05-20T11:51:04.062Z,21.30
2023-05-20T11:56:07.443Z,21.40
2023-05-20T12:01:21.557Z,21.30
2023-05-20T12:06:25.360Z,21.30
2023-05-20T12:11:28.636Z,21.30
2023-05-20T12:16:33.910Z,21.50
2023-05-20T12:21:37.347Z,21.60
2023-05-20T12:26:41.613Z,21.60
2023-05-20T12:31:45.132Z,21.60
2023-05-20T12:36:48.853Z,21.70
2023-05-20T12:41:52.613Z,21.60
2023-05-20T12:46:57.128Z,21.50
2023-05-20T12:52:03.578Z,21.80
2023-05-20T12:57:09.215Z,22.20
2023-05-20T13:02:12.571Z,22.60
2023-05-20T13:07:16.024Z,22.40
2023-05-20T13:12:19.376Z,22.10
2023-05-20T13:17:23.002Z,22.30
2023-05-20T13:22:26.249Z,22.40
2023-05-20T13:27:29.736Z,22.30
2023-05-20T13:32:32.977Z,22.20
2023-05-20T13:37:45.552Z,22.30
2023-05-20T13:42:48.847Z,22.60
2023-05-20T13:47:52.465Z,22.50
2023-05-20T13:52:55.852Z,22.50
2023-05-20T13:57:59.253Z,22.50
2023-05-20T14:03:05.187Z,22.70
2023-05-20T14:08:09.154Z,22.60
2023-05-20T14:13:12.455Z,22.80
2023-05-20T14:18:15.842Z,22.90
2023-05-20T14:23:19.134Z,22.80
2023-05-20T14:28:22.272Z,23.20
2023-05-20T14:33:25.953Z,23.40
2023-05-20T14:38:29.602Z,23.60
2023-05-20T14:43:33.262Z,23.80
2023-05-20T14:48:37.458Z,23.70
2023-05-20T14:53:40.721Z,23.60
2023-05-20T14:58:44.340Z,24.50
2023-05-20T15:03:47.785Z,25.00
2023-05-20T15:08:51.139Z,24.70
2023-05-20T15:13:54.452Z,24.20
2023-05-20T15:18:58.004Z,24.00
2023-05-20T15:24:01.679Z,24.20
2023-05-20T15:29:04.931Z,24.60
2023-05-20T15:34:08.250Z,25.00
2023-05-20T15:39:11.591Z,25.30
2023-05-20T15:44:14.888Z,25.40
2023-05-20T15:49:18.458Z,25.60
2023-05-20T15:54:21.779Z,25.90
2023-05-20T15:59:25.302Z,25.80
2023-05-20T16:04:28.631Z,25.80
2023-05-20T16:09:32.167Z,25.50
2023-05-20T16:14:35.976Z,25.40
2023-05-20T16:19:39.289Z,25.40
2023-05-20T16:24:42.768Z,25.30
2023-05-20T16:29:47.757Z,24.90
2023-05-20T16:34:51.302Z,24.30
2023-05-20T16:39:54.616Z,24.40
2023-05-20T16:44:58.147Z,24.70
2023-05-20T16:50:01.453Z,25.10
2023-05-20T16:55:08.619Z,25.40
2023-05-20T17:00:12.326Z,25.40
2023-05-20T17:05:17.008Z,25.30
2023-05-20T17:10:20.545Z,25.40
2023-05-20T17:15:23.987Z,25.50
2023-05-20T17:20:27.213Z,25.20
2023-05-20T17:25:30.577Z,25.00
2023-05-20T17:30:34.405Z,24.90
2023-05-20T17:35:38.095Z,24.40
2023-05-20T17:40:41.380Z,24.00
2023-05-20T17:45:45.160Z,23.40
2023-05-20T17:50:48.907Z,23.10
2023-05-20T17:55:53.458Z,23.10
2023-05-20T18:00:57.441Z,23.00
2023-05-20T18:06:02.221Z,22.80
2023-05-20T18:11:05.697Z,22.50
2023-05-20T18:16:09.612Z,21.70
2023-05-20T18:21:12.870Z,21.10
2023-05-20T18:26:16.538Z,20.60
2023-05-20T18:31:20.045Z,20.30
2023-05-20T18:36:23.396Z,20.00
2023-05-20T18:41:32.420Z,19.70
2023-05-20T18:46:48.942Z,19.50
2023-05-20T18:51:52.452Z,19.20
2023-05-20T18:56:56.336Z,19.00
2023-05-20T19:01:59.840Z,18.80
2023-05-20T19:07:03.183Z,18.60
2023-05-20T19:12:07.133Z,18.50
2023-05-20T19:17:10.854Z,18.30
2023-05-20T19:22:15.840Z,18.10
2023-05-20T19:27:20.553Z,18.00
2023-05-20T19:32:23.942Z,17.90
2023-05-20T19:37:27.728Z,17.70
2023-05-20T19:42:31.132Z,17.50
2023-05-20T19:47:34.909Z,17.40
2023-05-20T19:52:38.101Z,17.20
2023-05-20T19:57:41.492Z,17.20
2023-05-20T20:02:44.909Z,17.00
2023-05-20T20:07:48.508Z,16.80
2023-05-20T20:12:51.936Z,16.70
2023-05-20T20:17:55.487Z,16.70
2023-05-20T20:22:58.949Z,16.60
2023-05-20T20:28:02.166Z,16.40
2023-05-20T20:33:07.401Z,16.30
2023-05-20T20:38:11.147Z,16.20
2023-05-20T20:43:20.562Z,16.10
2023-05-20T20:48:28.483Z,16.00
2023-05-20T20:53:33.494Z,15.90
2023-05-20T20:58:37.983Z,15.70
2023-05-20T21:03:45.254Z,15.60
2023-05-20T21:08:48.882Z,15.60
2023-05-20T21:13:54.795Z,15.60
2023-05-20T21:18:58.228Z,15.60
2023-05-20T21:24:02.083Z,15.50
2023-05-20T21:29:06.591Z,15.50
2023-05-20T21:34:10.161Z,15.50
2023-05-20T21:39:13.482Z,15.40
2023-05-20T21:44:16.667Z,15.30
2023-05-20T21:49:20.426Z,15.10
2023-05-20T21:54:23.646Z,15.10
2023-05-20T21:59:29.521Z,15.10
2023-05-20T22:04:33.808Z,15.10
2023-05-20T22:09:36.983Z,15.00
2023-05-20T22:14:40.306Z,14.90
2023-05-20T22:19:43.786Z,14.80
2023-05-20T22:24:47.244Z,14.70
2023-05-20T22:29:51.195Z,14.70
2023-05-20T22:34:58.592Z,14.60
2023-05-20T22:40:01.997Z,14.60
2023-05-20T22:45:06.016Z,14.50
2023-05-20T22:50:09.862Z,14.50
2023-05-20T22:55:13.061Z,14.40
2023-05-20T23:00:16.674Z,14.30
2023-05-20T23:05:20.301Z,14.30
2023-05-20T23:10:24.936Z,14.20
2023-05-20T23:15:28.396Z,14.10
2023-05-20T23:20:31.680Z,14.10
2023-05-20T23:25:35.232Z,14.10
2023-05-20T23:30:38.807Z,14.10
2023-05-20T23:35:44.525Z,14.00
2023-05-20T23:40:48.538Z,13.90
2023-05-20T23:45:51.835Z,13.90
2023-05-20T23:50:55.088Z,13.90
2023-05-20T23:55:58.276Z,13.90
